createdAt,value
2024-01-11T00:00:33.966Z,5.28
2024-01-11T00:03:00.709Z,4.82
2024-01-11T00:05:27.887Z,5.23
2024-01-11T00:07:54.645Z,5.10
2024-01-11T00:10:21.557Z,4.90
2024-01-11T00:12:48.228Z,4.82
2024-01-11T00:15:15.053Z,5.05
2024-01-11T00:17:42.083Z,5.00
2024-01-11T00:20:09.392Z,4.07
2024-01-11T00:22:36.105Z,3.78
2024-01-11T00:25:02.831Z,4.30
2024-01-11T00:27:29.547Z,5.32
2024-01-11T00:29:56.211Z,4.07
2024-01-11T00:32:23.139Z,4.82
2024-01-11T00:34:49.914Z,5.20
2024-01-11T00:37:17.771Z,5.13
2024-01-11T00:39:45.020Z,5.53
2024-01-11T00:42:11.773Z,5.17
2024-01-11T00:44:38.565Z,4.95
2024-01-11T00:47:05.338Z,6.03
2024-01-11T00:49:32.159Z,5.72
2024-01-11T00:51:58.897Z,5.45
2024-01-11T00:54:26.183Z,4.53
2024-01-11T00:56:52.945Z,5.40
2024-01-11T00:59:19.695Z,5.30
2024-01-11T01:01:50.000Z,4.80
2024-01-11T01:04:16.787Z,4.60
2024-01-11T01:06:44.047Z,5.80
2024-01-11T01:09:10.870Z,4.28
2024-01-11T01:11:37.755Z,5.00
2024-01-11T01:14:04.535Z,4.78
2024-01-11T01:16:31.387Z,4.65
2024-01-11T01:18:58.261Z,3.77
2024-01-11T01:21:25.115Z,3.65
2024-01-11T01:23:51.776Z,4.30
2024-01-11T01:26:18.527Z,3.78
2024-01-11T01:28:45.288Z,4.80
2024-01-11T01:31:12.918Z,4.40
2024-01-11T01:33:41.361Z,4.55
2024-01-11T01:36:11.365Z,4.28
2024-01-11T01:38:38.149Z,4.60
2024-01-11T01:41:05.061Z,4.82
2024-01-11T01:43:31.843Z,4.50
2024-01-11T01:45:58.879Z,4.90
2024-01-11T01:48:25.803Z,5.75
2024-01-11T01:50:52.602Z,5.45
2024-01-11T01:53:20.845Z,4.78
2024-01-11T01:55:47.552Z,4.77
2024-01-11T01:58:14.337Z,4.32
2024-01-11T02:00:42.999Z,4.30
2024-01-11T02:03:09.802Z,3.88
2024-01-11T02:05:37.045Z,4.78
2024-01-11T02:08:05.205Z,4.57
2024-01-11T02:10:32.306Z,5.32
2024-01-11T02:12:58.971Z,4.25
2024-01-11T02:15:25.666Z,4.00
2024-01-11T02:17:52.416Z,4.28
2024-01-11T02:20:19.198Z,5.10
2024-01-11T02:22:48.619Z,4.50
2024-01-11T02:25:15.410Z,4.10
2024-01-11T02:27:48.954Z,3.88
2024-01-11T02:30:15.928Z,3.83
2024-01-11T02:32:44.918Z,4.20
2024-01-11T02:35:11.801Z,4.28
2024-01-11T02:37:38.577Z,4.38
2024-01-11T02:40:06.215Z,4.22
2024-01-11T02:42:32.979Z,4.47
2024-01-11T02:44:59.650Z,4.57
2024-01-11T02:47:26.502Z,4.30
2024-01-11T02:49:53.276Z,4.32
2024-01-11T02:52:19.998Z,3.75
2024-01-11T02:54:46.768Z,5.00
2024-01-11T02:57:13.429Z,3.90
2024-01-11T02:59:41.137Z,5.88
2024-01-11T03:02:07.908Z,4.20
2024-01-11T03:04:34.655Z,4.30
2024-01-11T03:07:01.322Z,4.28
2024-01-11T03:09:28.020Z,3.33
2024-01-11T03:11:54.720Z,4.15
2024-01-11T03:14:21.499Z,3.67
2024-01-11T03:16:48.243Z,4.07
2024-01-11T03:19:15.013Z,4.75
2024-01-11T03:21:44.196Z,3.40
2024-01-11T03:24:11.074Z,4.15
2024-01-11T03:26:37.914Z,3.85
2024-01-11T03:29:04.728Z,4.15
2024-01-11T03:31:31.398Z,3.15
2024-01-11T03:33:58.248Z,3.63
2024-01-11T03:36:25.916Z,4.13
2024-01-11T03:38:52.956Z,3.83
2024-01-11T03:41:20.652Z,3.30
2024-01-11T03:43:47.452Z,5.28
2024-01-11T03:46:14.155Z,3.50
2024-01-11T03:48:40.897Z,4.30
2024-01-11T03:51:08.027Z,4.32
2024-01-11T03:53:38.474Z,4.60
2024-01-11T03:56:05.873Z,4.50
2024-01-11T03:58:32.677Z,4.83
2024-01-11T04:00:59.381Z,3.60
2024-01-11T04:03:26.133Z,3.75
2024-01-11T04:05:52.891Z,3.95
2024-01-11T04:08:19.707Z,5.03
2024-01-11T04:10:46.414Z,4.93
2024-01-11T04:13:13.125Z,3.13
2024-01-11T04:15:39.807Z,4.45
2024-01-11T04:18:06.733Z,4.97
2024-01-11T04:20:33.676Z,4.40
2024-01-11T04:23:00.438Z,4.07
2024-01-11T04:25:27.126Z,4.13
2024-01-11T04:27:54.162Z,3.00
2024-01-11T04:30:20.860Z,4.60
2024-01-11T04:32:47.627Z,4.65
2024-01-11T04:35:14.376Z,4.43
2024-01-11T04:37:41.326Z,4.40
2024-01-11T04:40:09.016Z,3.85
2024-01-11T04:42:35.810Z,3.70
2024-01-11T04:45:02.498Z,3.40
2024-01-11T04:47:29.345Z,5.03
2024-01-11T04:49:56.169Z,4.38
2024-01-11T04:52:22.870Z,4.28
2024-01-11T04:54:49.608Z,3.80
2024-01-11T04:57:16.320Z,5.28
2024-01-11T04:59:43.125Z,3.70
2024-01-11T05:02:10.063Z,4.30
2024-01-11T05:04:36.874Z,3.63
2024-01-11T05:07:03.654Z,3.58
2024-01-11T05:09:30.437Z,3.85
2024-01-11T05:11:57.180Z,3.57
2024-01-11T05:14:23.924Z,4.15
2024-01-11T05:16:51.601Z,4.60
2024-01-11T05:19:18.504Z,3.28
2024-01-11T05:21:45.391Z,3.78
2024-01-11T05:24:12.456Z,3.63
2024-01-11T05:26:39.330Z,4.10
2024-01-11T05:29:06.370Z,4.70
2024-01-11T05:31:33.425Z,4.47
2024-01-11T05:34:00.568Z,3.78
2024-01-11T05:36:27.354Z,4.60
2024-01-11T05:38:54.037Z,4.00
2024-01-11T05:41:20.831Z,4.13
2024-01-11T05:43:47.561Z,4.90
2024-01-11T05:46:14.265Z,4.38
2024-01-11T05:48:41.465Z,5.83
2024-01-11T05:51:09.663Z,4.45
2024-01-11T05:53:37.001Z,4.60
2024-01-11T05:56:08.835Z,5.00
2024-01-11T05:58:35.712Z,5.65
2024-01-11T06:01:03.081Z,4.67
2024-01-11T06:03:30.920Z,4.57
2024-01-11T06:05:57.700Z,4.90
2024-01-11T06:08:24.490Z,4.15
2024-01-11T06:10:51.401Z,5.30
2024-01-11T06:13:18.155Z,5.13
2024-01-11T06:15:44.841Z,4.70
2024-01-11T06:18:12.028Z,5.28
2024-01-11T06:20:38.831Z,4.70
2024-01-11T06:23:05.640Z,4.97
2024-01-11T06:25:32.368Z,4.77
2024-01-11T06:27:59.204Z,4.60
2024-01-11T06:30:25.970Z,4.80
2024-01-11T06:32:52.779Z,4.93
2024-01-11T06:35:20.411Z,5.47
2024-01-11T06:37:47.079Z,4.07
2024-01-11T06:40:13.852Z,5.05
2024-01-11T06:42:40.656Z,4.65
2024-01-11T06:45:07.815Z,4.32
2024-01-11T06:47:34.803Z,9.40
2024-01-11T06:50:01.810Z,7.87
2024-01-11T06:52:28.637Z,10.70
2024-01-11T06:54:55.352Z,11.60
2024-01-11T06:57:22.110Z,9.32
2024-01-11T06:59:50.015Z,8.43
2024-01-11T07:02:16.832Z,7.80
2024-01-11T07:04:46.722Z,8.27
2024-01-11T07:07:13.404Z,9.05
2024-01-11T07:09:40.241Z,9.48
2024-01-11T07:12:07.409Z,9.35
2024-01-11T07:14:34.219Z,9.47
2024-01-11T07:17:00.962Z,9.70
2024-01-11T07:19:27.730Z,9.35
2024-01-11T07:21:54.698Z,8.68
2024-01-11T07:24:21.433Z,10.63
2024-01-11T07:26:48.656Z,10.07
2024-01-11T07:29:15.480Z,11.63
2024-01-11T07:31:42.235Z,9.77
2024-01-11T07:34:09.020Z,10.02
2024-01-11T07:36:35.786Z,10.98
2024-01-11T07:39:02.464Z,9.33
2024-01-11T07:41:29.239Z,9.13
2024-01-11T07:43:59.775Z,9.63
2024-01-11T07:46:33.477Z,8.27
2024-01-11T07:49:06.589Z,9.25
2024-01-11T07:51:34.142Z,7.47
2024-01-11T07:54:00.818Z,7.53
2024-01-11T07:56:27.601Z,6.20
2024-01-11T07:58:54.432Z,6.70
2024-01-11T08:01:21.371Z,5.32
2024-01-11T08:03:48.832Z,5.53
2024-01-11T08:06:15.891Z,7.32
2024-01-11T08:08:43.112Z,6.93
2024-01-11T08:11:09.973Z,5.38
2024-01-11T08:13:38.998Z,5.65
2024-01-11T08:16:06.050Z,6.50
2024-01-11T08:18:32.850Z,5.60
2024-01-11T08:20:59.618Z,5.65
2024-01-11T08:23:26.420Z,5.60
2024-01-11T08:25:54.016Z,6.03
2024-01-11T08:28:21.755Z,5.93
2024-01-11T08:30:48.717Z,5.30
2024-01-11T08:33:15.632Z,4.97
2024-01-11T08:35:43.252Z,5.40
2024-01-11T08:38:10.745Z,4.47
2024-01-11T08:40:37.664Z,4.50
2024-01-11T08:43:04.747Z,4.72
2024-01-11T08:45:32.338Z,5.43
2024-01-11T08:47:59.478Z,4.10
2024-01-11T08:50:28.484Z,3.78
2024-01-11T08:52:57.096Z,4.10
2024-01-11T08:55:24.228Z,3.38
2024-01-11T08:57:51.203Z,3.50
2024-01-11T09:00:19.388Z,3.65
2024-01-11T09:02:47.197Z,3.83
2024-01-11T09:05:17.377Z,3.10
2024-01-11T09:07:44.433Z,3.45
2024-01-11T09:10:12.510Z,3.00
2024-01-11T09:12:39.561Z,2.85
2024-01-11T09:15:06.762Z,2.78
2024-01-11T09:17:34.046Z,2.17
2024-01-11T09:20:01.242Z,2.83
2024-01-11T09:22:29.120Z,2.88
2024-01-11T09:24:55.971Z,2.90
2024-01-11T09:27:23.515Z,2.88
2024-01-11T09:29:53.288Z,3.03
2024-01-11T09:32:22.568Z,3.72
2024-01-11T09:34:49.341Z,4.30
2024-01-11T09:37:16.084Z,2.88
2024-01-11T09:39:43.675Z,3.28
2024-01-11T09:42:11.333Z,3.20
2024-01-11T09:44:41.196Z,2.80
2024-01-11T09:47:11.490Z,3.92
2024-01-11T09:49:39.675Z,3.90
2024-01-11T09:52:06.883Z,2.95
2024-01-11T09:54:33.521Z,3.63
2024-01-11T09:57:00.364Z,4.05
2024-01-11T09:59:27.111Z,4.13
2024-01-11T10:01:54.183Z,3.95
2024-01-11T10:04:21.530Z,3.33
2024-01-11T10:06:49.631Z,3.23
2024-01-11T10:09:17.511Z,4.10
2024-01-11T10:11:45.552Z,3.33
2024-01-11T10:14:13.892Z,3.67
2024-01-11T10:16:42.289Z,3.75
2024-01-11T10:19:10.166Z,3.33
2024-01-11T10:21:40.334Z,3.83
2024-01-11T10:24:07.167Z,4.10
2024-01-11T10:26:34.016Z,4.60
2024-01-11T10:29:01.197Z,4.78
2024-01-11T10:31:30.911Z,3.70
2024-01-11T10:33:58.709Z,4.53
2024-01-11T10:36:26.783Z,4.60
2024-01-11T10:38:53.498Z,4.93
2024-01-11T10:41:20.903Z,4.35
2024-01-11T10:43:47.638Z,4.60
2024-01-11T10:46:14.387Z,4.88
2024-01-11T10:48:41.304Z,4.90
2024-01-11T10:51:11.100Z,5.38
2024-01-11T10:53:47.027Z,5.00
2024-01-11T10:56:20.092Z,5.40
2024-01-11T10:58:49.881Z,4.68
2024-01-11T11:01:16.617Z,5.18
2024-01-11T11:03:44.313Z,5.00
2024-01-11T11:06:11.362Z,5.82
2024-01-11T11:08:38.543Z,5.23
2024-01-11T11:11:09.864Z,3.67
2024-01-11T11:13:36.801Z,5.47
2024-01-11T11:16:06.507Z,5.00
2024-01-11T11:18:36.188Z,4.72
2024-01-11T11:21:07.961Z,5.43
2024-01-11T11:23:34.897Z,6.18
2024-01-11T11:26:01.783Z,5.35
2024-01-11T11:28:28.596Z,5.93
2024-01-11T11:30:57.097Z,5.30
2024-01-11T11:33:27.226Z,5.80
2024-01-11T11:35:55.341Z,5.18
2024-01-11T11:38:32.089Z,5.45
2024-01-11T11:41:00.030Z,4.30
2024-01-11T11:43:29.655Z,4.95
2024-01-11T11:45:58.853Z,4.97
2024-01-11T11:48:30.766Z,5.47
2024-01-11T11:51:16.352Z,5.45
2024-01-11T11:53:46.956Z,4.47
2024-01-11T11:56:16.028Z,5.22
2024-01-11T11:58:44.078Z,5.43
2024-01-11T12:01:11.006Z,5.50
2024-01-11T12:03:49.992Z,5.28
2024-01-11T12:06:21.121Z,5.68
2024-01-11T12:08:48.633Z,5.82
2024-01-11T12:11:22.515Z,5.53
2024-01-11T12:13:49.763Z,5.35
2024-01-11T12:16:16.503Z,5.05
2024-01-11T12:18:43.600Z,4.60
2024-01-11T12:21:10.426Z,4.97
2024-01-11T12:23:39.447Z,4.47
2024-01-11T12:26:08.931Z,4.50
2024-01-11T12:28:35.730Z,3.97
2024-01-11T12:31:02.526Z,5.90
2024-01-11T12:33:30.177Z,3.83
2024-01-11T12:35:57.081Z,5.30
2024-01-11T12:38:23.940Z,4.85
2024-01-11T12:40:50.923Z,5.90
2024-01-11T12:43:17.560Z,6.38
2024-01-11T12:45:44.360Z,5.47
2024-01-11T12:48:11.241Z,6.10
2024-01-11T12:50:38.476Z,5.78
2024-01-11T12:53:21.454Z,4.68
2024-01-11T12:55:55.068Z,5.15
2024-01-11T12:58:28.502Z,4.63
2024-01-11T13:00:55.485Z,4.77
2024-01-11T13:03:22.474Z,4.95
2024-01-11T13:05:50.212Z,5.45
2024-01-11T13:08:19.514Z,5.53
2024-01-11T13:10:49.427Z,5.18
2024-01-11T13:13:16.539Z,5.30
2024-01-11T13:15:43.299Z,5.85
2024-01-11T13:18:10.647Z,6.20
2024-01-11T13:20:37.682Z,4.80
2024-01-11T13:23:23.171Z,6.70
2024-01-11T13:25:53.026Z,5.70
2024-01-11T13:28:22.575Z,5.80
2024-01-11T13:30:50.495Z,4.70
2024-01-11T13:33:19.284Z,5.80
2024-01-11T13:35:46.671Z,4.80
2024-01-11T13:38:13.880Z,6.33
2024-01-11T13:40:41.594Z,5.80
2024-01-11T13:43:08.574Z,5.40
2024-01-11T13:45:37.423Z,4.82
2024-01-11T13:48:05.487Z,6.22
2024-01-11T13:50:32.509Z,5.97
2024-01-11T13:52:59.284Z,5.68
2024-01-11T13:55:26.116Z,6.55
2024-01-11T13:57:53.694Z,5.43
2024-01-11T14:00:20.577Z,5.28
2024-01-11T14:02:50.733Z,6.53
2024-01-11T14:05:19.582Z,5.93
2024-01-11T14:07:46.986Z,6.32
2024-01-11T14:10:14.011Z,4.75
2024-01-11T14:12:40.847Z,5.35
2024-01-11T14:15:09.286Z,5.20
2024-01-11T14:17:36.141Z,5.85
2024-01-11T14:20:04.281Z,4.97
2024-01-11T14:22:31.070Z,5.68
2024-01-11T14:24:58.141Z,5.22
2024-01-11T14:27:24.861Z,4.07
2024-01-11T14:29:51.588Z,5.38
2024-01-11T14:32:25.750Z,5.20
2024-01-11T14:35:05.090Z,5.25
2024-01-11T14:37:32.838Z,5.30
2024-01-11T14:40:00.468Z,6.00
2024-01-11T14:42:27.873Z,5.00
2024-01-11T14:44:54.917Z,6.13
2024-01-11T14:47:22.252Z,5.35
2024-01-11T14:49:48.940Z,5.20
2024-01-11T14:52:17.969Z,4.80
2024-01-11T14:54:45.656Z,5.25
2024-01-11T14:57:13.501Z,5.03
2024-01-11T14:59:40.347Z,5.45
2024-01-11T15:02:07.283Z,4.05
2024-01-11T15:04:34.047Z,5.47
2024-01-11T15:07:00.828Z,4.53
2024-01-11T15:09:27.685Z,4.32
2024-01-11T15:11:54.645Z,4.57
2024-01-11T15:14:21.575Z,4.88
2024-01-11T15:16:49.602Z,5.17
2024-01-11T15:19:16.586Z,4.78
2024-01-11T15:21:48.859Z,5.25
2024-01-11T15:24:20.641Z,5.07
2024-01-11T15:26:49.779Z,5.78
2024-01-11T15:29:17.908Z,4.87
2024-01-11T15:31:47.439Z,6.15
2024-01-11T15:34:16.053Z,6.07
2024-01-11T15:36:43.741Z,5.07
2024-01-11T15:39:20.664Z,5.28
2024-01-11T15:41:55.697Z,5.63
2024-01-11T15:44:23.737Z,5.45
2024-01-11T15:46:50.840Z,4.95
2024-01-11T15:49:17.666Z,5.45
2024-01-11T15:51:45.154Z,5.20
2024-01-11T15:54:12.575Z,5.13
2024-01-11T15:56:39.568Z,5.68
2024-01-11T15:59:08.308Z,5.78
2024-01-11T16:01:46.547Z,4.65
2024-01-11T16:04:22.458Z,4.95
2024-01-11T16:06:49.610Z,6.23
2024-01-11T16:09:16.360Z,5.97
2024-01-11T16:11:43.059Z,5.78
2024-01-11T16:14:09.804Z,5.32
2024-01-11T16:16:36.668Z,6.32
2024-01-11T16:19:03.502Z,6.70
2024-01-11T16:21:32.350Z,5.85
2024-01-11T16:24:01.632Z,6.00
2024-01-11T16:26:29.617Z,6.78
2024-01-11T16:28:56.389Z,5.88
2024-01-11T16:31:26.101Z,4.87
2024-01-11T16:33:53.813Z,6.22
2024-01-11T16:36:20.754Z,5.72
2024-01-11T16:38:47.748Z,4.63
2024-01-11T16:41:14.755Z,5.43
2024-01-11T16:43:41.540Z,4.80
2024-01-11T16:46:08.826Z,5.32
2024-01-11T16:48:35.849Z,5.43
2024-01-11T16:51:02.913Z,5.20
2024-01-11T16:53:29.728Z,5.05
2024-01-11T16:55:56.620Z,4.93
2024-01-11T16:58:23.323Z,4.38
2024-01-11T17:00:50.080Z,5.75
2024-01-11T17:03:17.518Z,5.70
2024-01-11T17:05:44.419Z,4.72
2024-01-11T17:08:11.240Z,4.83
2024-01-11T17:10:39.069Z,5.55
2024-01-11T17:13:06.001Z,5.40
2024-01-11T17:15:33.176Z,5.35
2024-01-11T17:18:00.227Z,5.03
2024-01-11T17:20:27.094Z,5.63
2024-01-11T17:22:55.097Z,6.30
2024-01-11T17:25:22.169Z,6.68
2024-01-11T17:27:48.871Z,6.50
2024-01-11T17:30:15.672Z,6.95
2024-01-11T17:32:42.539Z,6.17
2024-01-11T17:35:09.824Z,4.95
2024-01-11T17:37:37.121Z,5.57
2024-01-11T17:40:04.690Z,6.60
2024-01-11T17:42:31.586Z,7.68
2024-01-11T17:44:58.716Z,8.40
2024-01-11T17:47:25.986Z,8.27
2024-01-11T17:49:52.884Z,6.22
2024-01-11T17:52:21.164Z,7.80
2024-01-11T17:54:48.309Z,6.75
2024-01-11T17:57:16.576Z,6.00
2024-01-11T17:59:44.410Z,5.85
2024-01-11T18:02:11.207Z,6.30
2024-01-11T18:04:38.454Z,6.68
2024-01-11T18:07:05.407Z,5.60
2024-01-11T18:09:32.149Z,5.17
2024-01-11T18:11:58.851Z,6.25
2024-01-11T18:14:25.574Z,6.03
2024-01-11T18:16:52.330Z,5.15
2024-01-11T18:19:19.031Z,5.35
2024-01-11T18:21:45.703Z,5.43
2024-01-11T18:24:13.468Z,5.07
2024-01-11T18:26:40.222Z,5.68
2024-01-11T18:29:07.000Z,4.57
2024-01-11T18:31:33.825Z,4.40
2024-01-11T18:34:00.564Z,6.03
2024-01-11T18:36:27.747Z,5.43
2024-01-11T18:38:58.325Z,5.05
2024-01-11T18:41:25.170Z,5.72
2024-01-11T18:43:51.972Z,6.40
2024-01-11T18:46:18.634Z,6.70
2024-01-11T18:48:45.484Z,9.00
2024-01-11T18:51:12.487Z,7.65
2024-01-11T18:53:41.437Z,6.63
2024-01-11T18:56:19.088Z,6.13
2024-01-11T18:58:46.053Z,5.10
2024-01-11T19:01:13.146Z,4.88
2024-01-11T19:03:40.839Z,5.53
2024-01-11T19:06:08.280Z,5.78
2024-01-11T19:08:35.277Z,5.05
2024-01-11T19:11:02.019Z,5.13
2024-01-11T19:13:28.840Z,5.97
2024-01-11T19:15:56.172Z,6.30
2024-01-11T19:18:23.119Z,5.45
2024-01-11T19:20:54.049Z,5.18
2024-01-11T19:23:22.276Z,5.10
2024-01-11T19:25:49.048Z,5.28
2024-01-11T19:28:16.154Z,5.18
2024-01-11T19:30:43.849Z,5.85
2024-01-11T19:33:13.515Z,4.72
2024-01-11T19:35:41.267Z,4.70
2024-01-11T19:38:08.775Z,5.13
2024-01-11T19:40:35.696Z,4.15
2024-01-11T19:43:02.380Z,4.30
2024-01-11T19:45:29.390Z,5.18
2024-01-11T19:47:57.392Z,4.30
2024-01-11T19:50:24.784Z,4.07
2024-01-11T19:52:52.165Z,4.43
2024-01-11T19:55:18.935Z,4.38
2024-01-11T19:57:45.654Z,4.72
2024-01-11T20:00:13.172Z,4.33
2024-01-11T20:02:40.034Z,4.55
2024-01-11T20:05:07.339Z,5.53
2024-01-11T20:07:35.650Z,3.78
2024-01-11T20:10:02.531Z,5.70
2024-01-11T20:12:29.821Z,5.13
2024-01-11T20:14:56.535Z,5.18
2024-01-11T20:17:23.854Z,5.10
2024-01-11T20:19:52.327Z,4.63
2024-01-11T20:22:19.972Z,3.55
2024-01-11T20:24:46.941Z,4.53
2024-01-11T20:27:13.700Z,4.65
2024-01-11T20:29:41.226Z,4.95
2024-01-11T20:32:08.042Z,4.60
2024-01-11T20:34:35.453Z,4.45
2024-01-11T20:37:02.415Z,4.63
2024-01-11T20:39:29.826Z,5.05
2024-01-11T20:41:58.619Z,4.95
2024-01-11T20:44:25.586Z,4.30
2024-01-11T20:46:52.739Z,4.60
2024-01-11T20:49:20.282Z,4.63
2024-01-11T20:51:47.278Z,4.50
2024-01-11T20:54:14.377Z,3.80
2024-01-11T20:56:47.473Z,3.90
2024-01-11T20:59:14.365Z,3.67
2024-01-11T21:01:41.099Z,3.80
2024-01-11T21:04:08.062Z,4.82
2024-01-11T21:06:34.973Z,5.78
2024-01-11T21:09:01.794Z,4.13
2024-01-11T21:11:28.636Z,4.32
2024-01-11T21:13:56.004Z,4.77
2024-01-11T21:16:22.745Z,4.05
2024-01-11T21:18:54.123Z,4.80
2024-01-11T21:21:24.490Z,3.15
2024-01-11T21:23:57.505Z,4.53
2024-01-11T21:26:24.993Z,3.63
2024-01-11T21:28:54.546Z,3.80
2024-01-11T21:31:25.008Z,3.10
2024-01-11T21:33:51.917Z,4.38
2024-01-11T21:36:23.724Z,3.17
2024-01-11T21:38:51.809Z,4.47
2024-01-11T21:41:18.662Z,4.32
2024-01-11T21:43:45.346Z,3.63
2024-01-11T21:46:12.131Z,4.97
2024-01-11T21:48:38.914Z,4.50
2024-01-11T21:51:05.825Z,3.73
2024-01-11T21:53:32.630Z,4.88
2024-01-11T21:56:01.094Z,3.33
2024-01-11T21:58:28.057Z,3.67
2024-01-11T22:00:56.821Z,5.40
2024-01-11T22:03:24.021Z,4.00
2024-01-11T22:05:52.049Z,3.88
2024-01-11T22:08:19.571Z,3.45
2024-01-11T22:10:47.000Z,4.03
2024-01-11T22:13:13.793Z,4.45
2024-01-11T22:15:41.103Z,5.07
2024-01-11T22:18:08.089Z,4.60
2024-01-11T22:20:34.997Z,5.50
2024-01-11T22:23:01.945Z,3.58
2024-01-11T22:25:28.625Z,4.57
2024-01-11T22:27:55.309Z,3.53
2024-01-11T22:30:21.993Z,4.30
2024-01-11T22:32:48.979Z,5.50
2024-01-11T22:35:15.946Z,4.68
2024-01-11T22:37:42.706Z,5.90
2024-01-11T22:40:09.924Z,3.33
2024-01-11T22:42:36.644Z,4.95
2024-01-11T22:45:03.773Z,4.97
2024-01-11T22:47:30.615Z,5.25
2024-01-11T22:49:57.315Z,4.53
2024-01-11T22:52:23.982Z,4.27
2024-01-11T22:54:50.662Z,4.90
2024-01-11T22:57:17.367Z,5.07
2024-01-11T22:59:44.075Z,4.35
2024-01-11T23:02:10.932Z,4.80
2024-01-11T23:04:37.669Z,4.90
2024-01-11T23:07:04.462Z,4.50
2024-01-11T23:09:31.121Z,4.50
2024-01-11T23:11:58.612Z,4.10
2024-01-11T23:14:26.143Z,5.53
2024-01-11T23:16:52.949Z,4.80
2024-01-11T23:19:19.816Z,4.50
2024-01-11T23:21:46.682Z,3.95
2024-01-11T23:24:13.826Z,4.85
2024-01-11T23:26:41.316Z,5.18
2024-01-11T23:29:08.394Z,5.30
2024-01-11T23:31:35.241Z,4.78
2024-01-11T23:34:02.093Z,5.57
2024-01-11T23:36:28.879Z,5.82
2024-01-11T23:38:55.561Z,4.18
2024-01-11T23:41:22.374Z,4.93
2024-01-11T23:43:49.267Z,4.75
2024-01-11T23:46:15.940Z,5.10
2024-01-11T23:48:42.665Z,4.55
2024-01-11T23:51:10.419Z,4.47
2024-01-11T23:53:37.219Z,4.43
2024-01-11T23:56:04.731Z,4.85
2024-01-11T23:58:31.441Z,4.95
